TimeCST,TemperatureF,Dew PointF,Humidity,Sea Level PressureIn,VisibilityMPH,Wind Direction,Wind SpeedMPH,Gust SpeedMPH,PrecipitationIn,Events,Conditions,WindDirDegrees,DateUTC
12:56 AM,64.9,59.0,81,29.92,10.0,South,11.5,-,N/A,,Overcast,170,2014-01-13 06:56:00
1:56 AM,64.0,59.0,84,29.92,10.0,South,10.4,-,N/A,,Overcast,180,2014-01-13 07:56:00
2:44 AM,62.6,57.2,82,29.85,10.0,South,6.9,-,N/A,,Scattered Clouds,190,2014-01-13 08:44:00
2:56 AM,63.0,57.9,84,29.93,10.0,SSW,6.9,-,N/A,,Clear,200,2014-01-13 08:56:00
3:56 AM,62.1,57.9,86,29.93,10.0,SSW,9.2,-,N/A,,Clear,210,2014-01-13 09:56:00
4:56 AM,62.1,48.9,62,29.95,10.0,West,17.3,-,N/A,,Clear,280,2014-01-13 10:56:00
5:56 AM,55.9,36.0,47,29.99,10.0,NW,21.9,-,N/A,,Clear,310,2014-01-13 11:56:00
6:56 AM,52.0,33.1,49,30.04,10.0,NW,13.8,-,N/A,,Clear,310,2014-01-13 12:56:00
7:56 AM,52.0,32.0,47,30.08,10.0,WNW,16.1,21.9,N/A,,Clear,300,2014-01-13 13:56:00
8:56 AM,55.0,30.9,40,30.13,10.0,WNW,17.3,-,N/A,,Clear,300,2014-01-13 14:56:00
9:56 AM,59.0,27.0,29,30.17,10.0,NW,19.6,27.6,N/A,,Clear,310,2014-01-13 15:56:00
10:56 AM,63.0,23.0,22,30.17,10.0,NNW,13.8,24.2,N/A,,Clear,330,2014-01-13 16:56:00
11:56 AM,66.0,18.0,16,30.15,10.0,NNW,16.1,29.9,N/A,,Clear,330,2014-01-13 17:56:00
12:56 PM,68.0,16.0,14,30.13,10.0,NW,24.2,32.2,N/A,,Clear,310,2014-01-13 18:56:00
1:56 PM,69.1,16.0,13,30.13,10.0,NW,21.9,26.5,N/A,,Clear,310,2014-01-13 19:56:00
2:56 PM,69.1,15.1,13,30.14,10.0,NW,20.7,-,N/A,,Clear,310,2014-01-13 20:56:00
3:56 PM,68.0,14.0,12,30.16,10.0,NW,21.9,28.8,N/A,,Clear,320,2014-01-13 21:56:00
4:56 PM,64.9,14.0,14,30.17,10.0,WNW,16.1,-,N/A,,Clear,300,2014-01-13 22:56:00
5:56 PM,60.1,15.1,17,30.18,10.0,NW,6.9,-,N/A,,Clear,310,2014-01-13 23:56:00
6:56 PM,57.0,18.0,22,30.20,10.0,West,5.8,-,N/A,,Clear,270,2014-01-14 00:56:00
7:56 PM,50.0,19.9,31,30.22,10.0,Calm,Calm,-,N/A,,Clear,0,2014-01-14 01:56:00
8:56 PM,48.9,21.0,33,30.22,10.0,Calm,Calm,-,N/A,,Clear,0,2014-01-14 02:56:00
9:56 PM,48.9,19.0,31,30.22,10.0,Calm,Calm,-,N/A,,Clear,0,2014-01-14 03:56:00
10:56 PM,43.0,24.1,47,30.22,10.0,Calm,Calm,-,N/A,,Clear,0,2014-01-14 04:56:00
11:56 PM,42.1,24.1,49,30.20,10.0,Calm,Calm,-,N/A,,Clear,0,2014-01-14 05:56:00